Time;durP1;ratioP1;P1;durP2;ratioP2;P2;SDS_P1;SDS_P2;PMS_P1;PMS_P2;Temp;Humidity;BMP_temperature;BMP_pressure;BME280_temperature;BME280_humidity;BME280_pressure;Samples;Min_cycle;Max_cycle;Signal;HPM_P1;HPM_P2
2021/12/11 00:01:04;;;;;;;28.95;18.00;;;1.90;99.90;;;;;;5017136;28;20045;-67
2021/12/11 00:03:38;;;;;;;29.92;18.15;;;1.90;99.90;;;;;;5021914;28;20049;-67
2021/12/11 00:06:32;;;;;;;26.65;17.30;;;1.90;99.90;;;;;;5029835;28;20056;-67
2021/12/11 00:09:08;;;;;;;25.23;15.30;;;2.00;99.90;;;;;;5039888;28;20048;-66
2021/12/11 00:11:40;;;;;;;23.70;15.65;;;1.90;99.90;;;;;;5022188;28;20041;-66
2021/12/11 00:14:10;;;;;;;28.98;17.30;;;1.90;99.90;;;;;;5033999;28;20044;-67
2021/12/11 00:16:38;;;;;;;25.90;17.08;;;1.90;99.90;;;;;;5022577;28;20049;-66
2021/12/11 00:19:22;;;;;;;28.48;16.42;;;1.90;99.90;;;;;;5024006;28;20072;-67
2021/12/11 00:21:50;;;;;;;25.75;16.20;;;1.90;99.90;;;;;;5024858;28;20037;-67
2021/12/11 00:24:26;;;;;;;24.77;15.63;;;1.90;99.90;;;;;;5031338;28;20076;-67
2021/12/11 00:27:01;;;;;;;24.33;15.05;;;2.00;99.90;;;;;;5024919;28;20103;-66
2021/12/11 00:29:29;;;;;;;23.70;14.18;;;1.90;99.90;;;;;;5035245;28;20063;-66
2021/12/11 00:32:26;;;;;;;22.95;14.07;;;2.00;99.90;;;;;;5014469;28;20069;-67
2021/12/11 00:35:06;;;;;;;21.50;13.90;;;2.00;99.90;;;;;;5014416;28;20107;-67
2021/12/11 00:37:34;;;;;;;21.75;13.25;;;1.90;99.90;;;;;;5016494;28;20053;-67
2021/12/11 00:40:15;;;;;;;22.17;13.05;;;2.00;99.90;;;;;;5021854;28;20140;-67
2021/12/11 00:42:52;;;;;;;19.52;12.50;;;1.90;99.90;;;;;;5023403;28;20049;-67
2021/12/11 00:45:25;;;;;;;19.10;12.48;;;2.00;99.90;;;;;;5015802;28;20052;-66
2021/12/11 00:47:57;;;;;;;16.35;10.98;;;2.00;99.90;;;;;;4986431;28;20484;-67
2021/12/11 00:50:29;;;;;;;18.58;11.50;;;2.00;99.90;;;;;;5004086;28;20034;-66
2021/12/11 00:53:08;;;;;;;16.88;10.73;;;2.10;99.90;;;;;;5034158;28;20113;-67
2021/12/11 00:55:45;;;;;;;18.35;10.82;;;2.00;99.90;;;;;;5015637;28;20132;-67
2021/12/11 00:58:15;;;;;;;16.98;10.15;;;2.00;99.90;;;;;;5038578;28;20052;-67
2021/12/11 01:00:55;;;;;;;16.55;10.23;;;2.00;99.90;;;;;;5015390;28;20037;-67
2021/12/11 01:03:28;;;;;;;16.10;10.07;;;2.00;99.90;;;;;;5029006;28;20061;-68
2021/12/11 01:05:58;;;;;;;19.55;10.77;;;1.90;99.90;;;;;;5019806;28;20064;-67
2021/12/11 01:08:34;;;;;;;16.35;10.13;;;1.90;99.90;;;;;;5029042;28;20046;-67
2021/12/11 01:11:16;;;;;;;16.42;9.70;;;1.90;99.90;;;;;;5027027;28;20042;-68
2021/12/11 01:13:51;;;;;;;16.13;10.25;;;1.90;99.90;;;;;;5022231;28;20042;-67
2021/12/11 01:16:20;;;;;;;27.13;12.48;;;1.90;99.90;;;;;;5031856;28;20042;-66
2021/12/11 01:18:55;;;;;;;14.80;9.35;;;1.90;99.90;;;;;;5044325;28;20492;-66
2021/12/11 01:21:44;;;;;;;15.40;9.98;;;2.00;99.90;;;;;;5032444;28;20042;-66
2021/12/11 01:24:29;;;;;;;15.70;9.65;;;2.00;99.90;;;;;;5031998;28;20059;-68
2021/12/11 01:26:59;;;;;;;16.15;9.93;;;1.90;99.90;;;;;;5031826;28;20523;-67
2021/12/11 01:29:29;;;;;;;16.38;10.40;;;1.90;99.90;;;;;;5031812;28;20479;-67
2021/12/11 01:31:57;;;;;;;16.55;10.20;;;2.00;99.90;;;;;;5023140;28;20099;-67
2021/12/11 01:34:26;;;;;;;16.38;9.55;;;1.90;99.90;;;;;;5013111;28;20052;-67
2021/12/11 01:36:54;;;;;;;15.20;9.10;;;1.90;99.90;;;;;;5024905;28;20078;-67
2021/12/11 01:39:26;;;;;;;15.10;9.35;;;2.00;99.90;;;;;;5030394;28;20057;-67
2021/12/11 01:41:55;;;;;;;16.08;10.13;;;2.00;99.90;;;;;;5024085;28;20096;-67
2021/12/11 01:44:30;;;;;;;16.83;10.25;;;2.00;99.90;;;;;;5022246;28;20488;-67
2021/12/11 01:47:09;;;;;;;14.68;9.15;;;2.00;99.90;;;;;;5025608;28;20504;-67
2021/12/11 01:49:40;;;;;;;15.13;9.48;;;2.00;99.90;;;;;;5031036;28;20045;-66
2021/12/11 01:52:30;;;;;;;16.75;9.77;;;1.90;99.90;;;;;;5020730;28;20041;-67
2021/12/11 01:54:58;;;;;;;15.35;9.73;;;2.00;99.90;;;;;;5011039;28;20050;-67
2021/12/11 01:57:30;;;;;;;13.73;8.68;;;2.00;99.90;;;;;;5013763;28;20431;-67
2021/12/11 02:00:12;;;;;;;14.18;9.13;;;1.90;99.90;;;;;;5048441;28;20044;-67
2021/12/11 02:02:50;;;;;;;15.15;9.48;;;1.90;99.90;;;;;;5028701;28;20045;-67
2021/12/11 02:05:28;;;;;;;14.98;9.18;;;1.90;99.90;;;;;;5042391;28;20606;-65
2021/12/11 02:08:04;;;;;;;16.00;9.85;;;1.90;99.90;;;;;;5028752;28;20517;-68
2021/12/11 02:10:38;;;;;;;15.00;10.07;;;1.90;99.90;;;;;;5023121;28;20048;-67
2021/12/11 02:13:09;;;;;;;14.18;8.65;;;1.90;99.90;;;;;;5031391;28;20049;-67
2021/12/11 02:15:45;;;;;;;15.40;9.40;;;1.90;99.90;;;;;;5034065;28;20049;-67
2021/12/11 02:18:19;;;;;;;15.32;9.77;;;1.90;99.90;;;;;;5010302;28;20305;-67
2021/12/11 02:20:57;;;;;;;13.95;9.13;;;1.80;99.90;;;;;;5020923;28;20068;-67
2021/12/11 02:23:27;;;;;;;14.98;9.30;;;1.90;99.90;;;;;;5023241;28;20113;-67
2021/12/11 02:26:03;;;;;;;15.27;9.15;;;1.90;99.90;;;;;;5032441;28;20557;-67
2021/12/11 02:28:41;;;;;;;14.27;9.27;;;1.80;99.90;;;;;;5013225;28;20056;-67
2021/12/11 02:31:27;;;;;;;15.07;9.50;;;1.80;99.90;;;;;;5032033;28;20049;-67
2021/12/11 02:33:55;;;;;;;15.95;9.80;;;1.80;99.90;;;;;;5024734;28;20451;-67
2021/12/11 02:36:30;;;;;;;15.88;9.82;;;1.80;99.90;;;;;;5003785;28;20518;-67
2021/12/11 02:39:10;;;;;;;16.40;10.63;;;1.90;99.90;;;;;;5032131;28;20045;-67
2021/12/11 02:42:16;;;;;;;16.60;10.43;;;1.80;99.90;;;;;;5031965;28;20393;-67
2021/12/11 02:45:29;;;;;;;16.52;10.63;;;1.80;99.90;;;;;;5037389;28;20049;-67
2021/12/11 02:47:59;;;;;;;;;;;1.80;99.90;;;;;;5038353;28;20506;-67
2021/12/11 02:50:35;;;;;;;13.55;8.43;;;1.80;99.90;;;;;;5029926;28;19921;-65
2021/12/11 02:53:20;;;;;;;17.48;10.85;;;1.90;99.90;;;;;;5048237;28;20048;-66
2021/12/11 02:56:21;;;;;;;18.45;10.90;;;1.80;99.90;;;;;;5000909;28;20056;-67
2021/12/11 02:58:52;;;;;;;17.88;10.45;;;1.80;99.90;;;;;;5002204;28;20049;-67
2021/12/11 03:01:30;;;;;;;18.48;10.20;;;1.80;99.90;;;;;;5027649;28;20053;-67
2021/12/11 03:04:13;;;;;;;17.67;10.95;;;1.80;99.90;;;;;;5017378;28;20052;-67
2021/12/11 03:06:44;;;;;;;16.73;10.55;;;1.80;99.90;;;;;;5027270;28;20057;-67
2021/12/11 03:09:14;;;;;;;19.80;11.40;;;1.70;99.90;;;;;;5030683;28;20506;-67
2021/12/11 03:11:42;;;;;;;16.83;10.70;;;1.70;99.90;;;;;;5028360;28;20121;-67
2021/12/11 03:14:12;;;;;;;16.75;10.45;;;1.70;99.90;;;;;;5034072;28;20545;-67
2021/12/11 03:16:41;;;;;;;18.77;11.15;;;1.70;99.90;;;;;;5041286;28;20140;-67
2021/12/11 03:19:15;;;;;;;17.92;10.68;;;1.70;99.90;;;;;;5042779;28;20055;-67
2021/12/11 03:21:43;;;;;;;18.00;10.52;;;1.70;99.90;;;;;;5038089;28;20049;-67
2021/12/11 03:24:11;;;;;;;18.20;10.98;;;1.70;99.90;;;;;;5042428;28;20049;-67
2021/12/11 03:26:40;;;;;;;19.55;11.27;;;1.70;99.90;;;;;;5031898;28;20049;-67
2021/12/11 03:29:09;;;;;;;17.15;11.27;;;1.70;99.90;;;;;;5049065;28;20048;-68
2021/12/11 03:31:37;;;;;;;19.40;11.52;;;1.60;99.90;;;;;;5039789;28;20033;-67
2021/12/11 03:34:12;;;;;;;20.85;11.98;;;1.60;99.90;;;;;;5027721;28;20480;-67
2021/12/11 03:36:40;;;;;;;22.95;13.02;;;1.60;99.90;;;;;;5028397;28;20056;-67
2021/12/11 03:39:14;;;;;;;20.45;12.43;;;1.70;99.90;;;;;;5047923;28;20761;-67
2021/12/11 03:41:43;;;;;;;20.95;12.68;;;1.70;99.90;;;;;;5046243;28;20041;-67
2021/12/11 03:44:11;;;;;;;22.10;13.55;;;1.70;99.90;;;;;;5030915;28;20048;-67
2021/12/11 03:46:39;;;;;;;23.85;14.18;;;1.70;99.90;;;;;;5035953;28;20116;-68
2021/12/11 03:49:13;;;;;;;23.60;13.68;;;1.70;99.90;;;;;;5042649;28;20046;-67
2021/12/11 03:51:43;;;;;;;22.60;13.43;;;1.70;99.90;;;;;;5034349;28;20495;-67
2021/12/11 03:54:15;;;;;;;23.67;14.80;;;1.70;99.90;;;;;;5023141;28;20041;-67
2021/12/11 03:56:43;;;;;;;24.20;13.95;;;1.70;99.90;;;;;;5020213;28;20100;-67
2021/12/11 03:59:12;;;;;;;23.63;14.05;;;1.70;99.90;;;;;;5036016;28;20052;-67
2021/12/11 04:01:46;;;;;;;25.30;14.63;;;1.60;99.90;;;;;;5037067;28;20487;-67
2021/12/11 04:04:23;;;;;;;23.08;14.07;;;1.70;99.90;;;;;;5032582;28;20504;-67
2021/12/11 04:06:51;;;;;;;25.13;14.88;;;1.70;99.90;;;;;;5040386;28;20041;-67
2021/12/11 04:09:19;;;;;;;24.50;14.32;;;1.70;99.90;;;;;;5031887;28;20076;-67
2021/12/11 04:11:49;;;;;;;24.95;15.27;;;1.70;99.90;;;;;;5041145;28;20385;-67
2021/12/11 04:14:21;;;;;;;26.40;16.25;;;1.70;99.90;;;;;;5045136;28;20044;-67
2021/12/11 04:16:49;;;;;;;25.48;15.73;;;1.70;99.90;;;;;;5038960;28;20103;-67
2021/12/11 04:19:17;;;;;;;27.02;16.55;;;1.70;99.90;;;;;;5044180;28;20037;-65
2021/12/11 04:21:46;;;;;;;27.95;17.48;;;1.80;99.90;;;;;;5042534;28;20075;-67
2021/12/11 04:24:16;;;;;;;28.98;16.25;;;1.90;99.90;;;;;;5039040;28;20041;-67
2021/12/11 04:26:45;;;;;;;27.65;15.82;;;1.80;99.90;;;;;;5033700;28;20052;-67
2021/12/11 04:29:12;;;;;;;30.45;17.30;;;1.80;99.90;;;;;;5040918;28;20056;-67
2021/12/11 04:31:42;;;;;;;32.60;18.30;;;1.80;99.90;;;;;;5035238;28;20049;-67
2021/12/11 04:34:14;;;;;;;32.60;18.63;;;1.70;99.90;;;;;;5015390;28;20156;-67
2021/12/11 04:36:51;;;;;;;29.70;16.80;;;1.70;99.90;;;;;;5025499;28;20120;-67
2021/12/11 04:39:22;;;;;;;33.60;19.02;;;1.70;99.90;;;;;;5033270;28;20499;-67
2021/12/11 04:42:00;;;;;;;33.42;18.30;;;1.70;99.90;;;;;;5025406;28;20499;-67
2021/12/11 04:44:37;;;;;;;31.92;18.33;;;1.70;99.90;;;;;;5034976;28;20057;-67
2021/12/11 04:47:11;;;;;;;30.80;18.33;;;1.70;99.90;;;;;;5036146;28;20553;-67
2021/12/11 04:49:52;;;;;;;33.00;18.95;;;1.70;99.90;;;;;;5043103;28;20408;-67
2021/12/11 04:52:33;;;;;;;28.38;16.52;;;1.70;99.90;;;;;;5031717;28;20095;-67
2021/12/11 05:01:33;;;;;;;33.85;19.50;;;1.70;99.90;;;;;;5027078;28;20427;-67
2021/12/11 05:03:48;;;;;;;34.95;18.70;;;1.70;99.90;;;;;;5020334;28;20049;-67
2021/12/11 05:11:45;;;;;;;32.90;18.55;;;1.70;99.90;;;;;;5047385;28;20057;-67
2021/12/11 05:14:17;;;;;;;33.38;19.00;;;1.70;99.90;;;;;;5013739;28;20057;-67
2021/12/11 05:16:44;;;;;;;;;;;1.70;99.90;;;;;;5049174;28;20049;-67
2021/12/11 05:19:12;;;;;;;30.58;17.27;;;1.70;99.90;;;;;;5026578;28;19924;-67
2021/12/11 05:21:40;;;;;;;31.55;17.73;;;1.70;99.90;;;;;;5029023;28;20049;-67
2021/12/11 05:24:09;;;;;;;32.95;18.40;;;1.70;99.90;;;;;;5028403;28;20123;-67
2021/12/11 05:26:36;;;;;;;32.40;18.55;;;1.70;99.90;;;;;;5011092;28;20065;-67
2021/12/11 05:29:06;;;;;;;31.48;17.15;;;1.60;99.90;;;;;;5010487;28;20204;-67
2021/12/11 05:31:34;;;;;;;32.97;17.17;;;1.60;99.90;;;;;;5016703;28;20511;-67
2021/12/11 05:34:03;;;;;;;34.97;18.48;;;1.60;99.90;;;;;;5016226;28;20074;-67
2021/12/11 05:36:32;;;;;;;29.42;16.70;;;1.60;99.90;;;;;;5009893;28;20096;-67
2021/12/11 05:39:02;;;;;;;34.42;17.80;;;1.50;99.90;;;;;;5008196;28;20069;-67
2021/12/11 05:41:29;;;;;;;33.55;17.63;;;1.50;99.90;;;;;;5029197;28;20824;-67
2021/12/11 05:43:56;;;;;;;39.17;19.70;;;1.50;99.90;;;;;;5017586;28;20065;-67
2021/12/11 05:46:23;;;;;;;34.65;17.88;;;1.50;99.90;;;;;;4986808;28;20081;-67
2021/12/11 05:48:52;;;;;;;30.80;16.25;;;1.50;99.90;;;;;;5019688;28;20073;-67
2021/12/11 05:51:22;;;;;;;34.58;18.50;;;1.50;99.90;;;;;;5015755;28;20041;-67
2021/12/11 05:53:54;;;;;;;36.92;20.10;;;1.50;99.90;;;;;;5019771;28;20037;-67
2021/12/11 05:56:22;;;;;;;29.02;16.30;;;1.50;99.90;;;;;;5003058;28;20056;-67
2021/12/11 06:01:29;;;;;;;32.08;17.38;;;1.50;99.90;;;;;;5039621;28;20049;-67
2021/12/11 06:03:59;;;;;;;28.90;16.05;;;1.50;99.90;;;;;;5031664;28;20045;-67
2021/12/11 06:06:28;;;;;;;32.55;16.20;;;1.50;99.90;;;;;;5033600;28;20045;-67
2021/12/11 06:08:55;;;;;;;32.90;18.63;;;1.60;99.90;;;;;;5024603;28;20053;-67
2021/12/11 06:11:22;;;;;;;31.30;16.88;;;1.60;99.90;;;;;;5035617;28;20153;-67
2021/12/11 06:13:50;;;;;;;32.40;17.33;;;1.60;99.90;;;;;;5020189;28;20049;-67
2021/12/11 06:16:17;;;;;;;30.88;16.80;;;1.60;99.90;;;;;;5028020;28;20049;-67
2021/12/11 06:18:45;;;;;;;33.20;17.77;;;1.60;99.90;;;;;;5044087;28;20104;-67
2021/12/11 06:21:14;;;;;;;30.75;17.25;;;1.60;99.90;;;;;;5046806;28;20453;-67
2021/12/11 06:23:42;;;;;;;32.47;17.25;;;1.60;99.90;;;;;;5019130;28;20053;-67
2021/12/11 06:26:10;;;;;;;33.75;17.33;;;1.60;99.90;;;;;;5046638;28;20053;-67
2021/12/11 06:28:38;;;;;;;34.05;18.25;;;1.60;99.90;;;;;;5048771;28;20060;-67
2021/12/11 06:31:06;;;;;;;33.30;18.13;;;1.60;99.90;;;;;;5047813;28;20566;-66
2021/12/11 06:33:34;;;;;;;35.25;18.52;;;1.60;99.90;;;;;;5047029;28;20052;-66
2021/12/11 06:36:10;;;;;;;33.95;18.85;;;1.50;99.90;;;;;;5046952;28;20072;-66
2021/12/11 06:38:39;;;;;;;30.15;16.63;;;1.50;99.90;;;;;;5047209;28;20763;-66
2021/12/11 06:41:09;;;;;;;34.10;17.70;;;1.60;99.90;;;;;;5025593;28;20511;-66
2021/12/11 06:43:36;;;;;;;33.90;18.25;;;1.50;99.90;;;;;;5049357;28;20048;-66
2021/12/11 06:46:05;;;;;;;33.70;19.02;;;1.50;99.90;;;;;;5044470;28;20088;-66
2021/12/11 06:48:33;;;;;;;32.95;17.83;;;1.50;99.90;;;;;;5046943;28;20124;-66
2021/12/11 06:51:03;;;;;;;33.65;17.02;;;1.60;99.90;;;;;;5043911;28;20565;-66
2021/12/11 06:53:39;;;;;;;33.22;18.08;;;1.60;99.90;;;;;;5042989;28;20480;-66
2021/12/11 06:56:08;;;;;;;35.70;18.50;;;1.60;99.90;;;;;;5004525;28;20045;-66
2021/12/11 06:58:36;;;;;;;38.83;19.50;;;1.60;99.90;;;;;;5041178;28;20041;-66
2021/12/11 07:01:05;;;;;;;33.05;18.23;;;1.60;99.90;;;;;;5017193;28;20052;-66
2021/12/11 07:03:33;;;;;;;36.67;18.70;;;1.70;99.90;;;;;;5029346;28;20041;-66
2021/12/11 07:06:02;;;;;;;34.67;18.30;;;1.70;99.90;;;;;;5024758;28;20057;-66
2021/12/11 07:08:30;;;;;;;38.40;20.02;;;1.60;99.90;;;;;;5038371;28;20080;-66
2021/12/11 07:10:58;;;;;;;36.17;19.17;;;1.60;99.90;;;;;;5043471;28;20041;-66
2021/12/11 07:13:27;;;;;;;35.92;18.77;;;1.60;99.90;;;;;;5037477;28;20048;-66
2021/12/11 07:15:58;;;;;;;34.63;18.98;;;1.60;99.90;;;;;;5042692;28;20060;-66
2021/12/11 07:18:27;;;;;;;41.57;20.93;;;1.70;99.90;;;;;;5038623;28;20913;-67
2021/12/11 07:20:56;;;;;;;34.28;18.70;;;1.60;99.90;;;;;;5042582;28;20055;-66
2021/12/11 07:23:23;;;;;;;36.47;19.25;;;1.60;99.90;;;;;;4999114;28;20045;-66
2021/12/11 07:26:12;;;;;;;38.28;18.73;;;1.60;99.90;;;;;;5040855;28;20052;-66
2021/12/11 07:28:41;;;;;;;38.53;19.40;;;1.60;99.90;;;;;;5038524;28;20053;-66
2021/12/11 07:31:08;;;;;;;35.45;18.85;;;1.60;99.90;;;;;;5039541;28;20037;-66
2021/12/11 07:33:37;;;;;;;33.22;19.00;;;1.60;99.90;;;;;;5028507;28;20420;-66
2021/12/11 07:36:05;;;;;;;35.88;19.45;;;1.70;99.90;;;;;;5040932;28;20119;-67
2021/12/11 07:38:33;;;;;;;36.33;19.08;;;1.70;99.90;;;;;;5043827;28;20049;-66
2021/12/11 07:41:08;;;;;;;37.28;18.77;;;1.70;99.90;;;;;;5040807;28;20092;-66
2021/12/11 07:43:37;;;;;;;51.67;24.73;;;1.70;99.90;;;;;;5035863;28;20048;-66
2021/12/11 07:46:07;;;;;;;39.35;19.42;;;1.70;99.90;;;;;;5041429;28;20064;-66
2021/12/11 07:48:35;;;;;;;40.33;21.30;;;1.70;99.90;;;;;;5032346;28;20151;-66
2021/12/11 07:51:04;;;;;;;41.75;22.08;;;1.70;99.90;;;;;;5038231;28;20059;-66
2021/12/11 07:53:31;;;;;;;41.15;20.88;;;1.60;99.90;;;;;;5022596;28;20033;-66
2021/12/11 07:55:59;;;;;;;40.72;20.55;;;1.70;99.90;;;;;;5029520;28;20412;-66
2021/12/11 07:58:31;;;;;;;38.50;20.17;;;1.70;99.90;;;;;;5019945;28;20045;-66
2021/12/11 08:01:00;;;;;;;41.65;22.63;;;1.80;99.90;;;;;;5027337;28;20495;-66
2021/12/11 08:03:28;;;;;;;41.55;21.23;;;1.70;99.90;;;;;;5037441;28;20057;-66
2021/12/11 08:05:55;;;;;;;52.42;24.33;;;1.70;99.90;;;;;;5040784;28;20037;-66
2021/12/11 08:08:23;;;;;;;45.60;24.35;;;1.70;99.90;;;;;;5041634;28;20517;-66
2021/12/11 08:10:54;;;;;;;47.92;22.83;;;1.70;99.90;;;;;;5030389;28;20041;-66
2021/12/11 08:13:21;;;;;;;46.15;24.00;;;1.70;99.90;;;;;;5041925;28;20102;-66
2021/12/11 08:15:50;;;;;;;46.83;24.10;;;1.70;99.90;;;;;;5049019;28;20052;-66
2021/12/11 08:18:19;;;;;;;47.05;22.77;;;1.80;99.90;;;;;;5049828;28;20056;-66
2021/12/11 08:20:47;;;;;;;52.58;25.35;;;1.80;99.90;;;;;;5034634;28;20451;-66
2021/12/11 08:23:16;;;;;;;43.65;23.15;;;1.90;99.90;;;;;;5029975;28;20468;-66
2021/12/11 08:25:46;;;;;;;53.35;25.27;;;1.80;99.90;;;;;;5032666;28;20056;-66
2021/12/11 08:28:21;;;;;;;48.45;23.83;;;1.90;99.90;;;;;;5042872;28;20045;-66
2021/12/11 08:30:50;;;;;;;47.72;24.52;;;1.90;99.90;;;;;;5021957;28;20060;-66
2021/12/11 08:33:19;;;;;;;49.47;24.88;;;1.90;99.90;;;;;;5018111;28;20052;-66
2021/12/11 08:35:47;;;;;;;50.00;25.13;;;1.90;99.90;;;;;;5016996;28;20033;-67
2021/12/11 08:38:15;;;;;;;49.45;25.05;;;2.00;99.90;;;;;;5021334;28;20048;-66
2021/12/11 08:40:48;;;;;;;53.13;25.83;;;1.90;99.90;;;;;;5018899;28;20049;-66
2021/12/11 08:43:17;;;;;;;57.83;27.23;;;2.00;99.90;;;;;;5028414;28;20053;-66
2021/12/11 08:45:57;;;;;;;50.00;25.35;;;2.00;99.90;;;;;;5019843;28;20500;-66
2021/12/11 08:48:26;;;;;;;52.38;26.33;;;2.10;99.90;;;;;;5024528;28;20045;-67
2021/12/11 08:50:58;;;;;;;48.35;24.90;;;2.10;99.90;;;;;;5004308;28;20100;-66
2021/12/11 08:53:26;;;;;;;47.47;25.20;;;2.10;99.90;;;;;;5007786;28;20040;-66
2021/12/11 08:55:54;;;;;;;49.95;24.98;;;2.20;99.90;;;;;;5023385;28;20057;-66
2021/12/11 08:58:24;;;;;;;45.75;23.27;;;2.20;99.90;;;;;;5038261;28;20044;-66
2021/12/11 09:01:18;;;;;;;47.33;23.75;;;2.20;99.90;;;;;;5017576;28;20135;-66
2021/12/11 09:04:02;;;;;;;45.53;24.02;;;2.20;99.90;;;;;;5001708;28;20547;-65
2021/12/11 09:06:38;;;;;;;43.00;22.42;;;2.20;99.90;;;;;;5021857;28;20046;-66
2021/12/11 09:09:14;;;;;;;40.67;22.38;;;2.20;99.90;;;;;;5028212;28;20041;-65
2021/12/11 09:11:46;;;;;;;46.67;23.23;;;2.20;99.90;;;;;;4989703;28;20054;-66
2021/12/11 09:14:27;;;;;;;42.63;23.42;;;2.20;99.90;;;;;;5038995;28;20040;-66
2021/12/11 09:17:12;;;;;;;47.80;23.85;;;2.20;99.90;;;;;;5029343;28;20507;-66
2021/12/11 09:19:44;;;;;;;45.33;23.23;;;2.20;99.90;;;;;;5029001;28;20034;-66
2021/12/11 09:22:16;;;;;;;45.80;24.00;;;2.20;99.90;;;;;;5024118;28;20046;-66
2021/12/11 09:25:16;;;;;;;46.30;24.05;;;2.30;99.90;;;;;;5026982;28;20043;-66
2021/12/11 09:27:52;;;;;;;48.72;24.02;;;2.20;99.90;;;;;;5011529;28;20055;-66
2021/12/11 09:30:19;;;;;;;47.22;24.70;;;2.20;99.90;;;;;;5021044;28;20095;-65
2021/12/11 09:32:53;;;;;;;44.05;24.67;;;2.20;99.90;;;;;;5041893;28;20095;-66
2021/12/11 09:35:28;;;;;;;46.30;23.88;;;2.20;99.90;;;;;;5033380;28;20038;-66
2021/12/11 09:38:05;;;;;;;43.08;23.73;;;2.20;99.90;;;;;;5018761;28;20033;-66
2021/12/11 09:40:35;;;;;;;45.85;24.90;;;2.20;99.90;;;;;;5027856;28;20049;-65
2021/12/11 09:43:02;;;;;;;43.42;22.52;;;2.20;99.90;;;;;;5024225;28;20041;-66
2021/12/11 09:45:37;;;;;;;42.55;23.35;;;2.30;99.90;;;;;;5015030;28;20071;-66
2021/12/11 09:48:10;;;;;;;42.78;22.73;;;2.30;99.90;;;;;;5017833;28;20061;-67
2021/12/11 09:50:48;;;;;;;40.88;22.67;;;2.40;99.90;;;;;;5001053;28;20050;-66
2021/12/11 09:53:19;;;;;;;43.97;22.85;;;2.40;99.90;;;;;;5022069;28;20751;-66
2021/12/11 09:55:48;;;;;;;46.10;23.70;;;2.40;99.90;;;;;;5000789;28;20042;-66
2021/12/11 09:58:21;;;;;;;45.63;23.38;;;2.50;99.90;;;;;;5040083;28;20048;-65
2021/12/11 10:00:51;;;;;;;43.33;22.65;;;2.60;99.90;;;;;;5009241;28;20044;-67
2021/12/11 10:03:23;;;;;;;41.13;22.33;;;2.50;99.90;;;;;;5026941;28;20064;-65
2021/12/11 10:05:56;;;;;;;;;;;2.60;99.90;;;;;;5030064;28;20046;-66
2021/12/11 10:08:32;;;;;;;41.22;21.48;;;2.70;99.90;;;;;;5018359;28;19921;-66
2021/12/11 10:11:11;;;;;;;39.22;21.42;;;2.70;99.90;;;;;;5025641;28;20523;-66
2021/12/11 10:13:53;;;;;;;36.85;21.42;;;2.80;99.90;;;;;;5034835;28;20030;-66
2021/12/11 10:16:24;;;;;;;36.10;21.02;;;2.70;99.90;;;;;;5034853;28;20042;-66
2021/12/11 10:18:52;;;;;;;40.13;21.70;;;2.80;99.90;;;;;;5019353;28;20835;-66
2021/12/11 10:21:28;;;;;;;36.55;20.73;;;2.70;99.90;;;;;;5028800;28;20042;-66
2021/12/11 10:23:59;;;;;;;37.75;21.83;;;2.70;99.90;;;;;;5031016;28;20496;-66
2021/12/11 10:26:27;;;;;;;35.17;19.33;;;2.70;99.90;;;;;;5028305;28;20041;-66
2021/12/11 10:28:58;;;;;;;36.85;20.33;;;2.70;99.90;;;;;;5008075;28;20053;-66
2021/12/11 10:31:30;;;;;;;37.72;20.25;;;2.70;99.90;;;;;;5036428;28;20041;-66
2021/12/11 10:34:06;;;;;;;37.83;20.63;;;2.70;99.90;;;;;;5043858;28;20041;-66
2021/12/11 10:36:41;;;;;;;39.05;21.02;;;2.70;99.90;;;;;;5037494;28;20048;-66
2021/12/11 10:39:12;;;;;;;38.63;20.75;;;2.70;99.90;;;;;;5048534;28;20035;-66
2021/12/11 10:41:45;;;;;;;39.22;20.95;;;2.70;99.90;;;;;;5043783;28;20041;-66
2021/12/11 10:44:23;;;;;;;39.40;21.17;;;2.70;99.90;;;;;;5047157;28;20490;-66
2021/12/11 10:47:06;;;;;;;38.25;21.05;;;2.70;99.90;;;;;;5032440;28;20041;-66
2021/12/11 10:49:35;;;;;;;37.75;22.33;;;2.80;99.90;;;;;;5048268;28;20072;-66
2021/12/11 10:52:14;;;;;;;41.53;22.10;;;2.90;99.90;;;;;;5049678;28;20049;-66
2021/12/11 10:54:43;;;;;;;35.08;20.23;;;3.00;99.90;;;;;;5011521;28;20566;-66
2021/12/11 10:57:11;;;;;;;34.92;19.65;;;3.10;99.90;;;;;;5025619;28;20091;-66
2021/12/11 10:59:42;;;;;;;35.95;20.33;;;3.10;99.90;;;;;;5032800;28;20052;-66
2021/12/11 11:02:14;;;;;;;34.27;19.03;;;3.20;99.90;;;;;;5028094;28;20144;-66
2021/12/11 11:04:52;;;;;;;39.58;19.88;;;3.20;99.90;;;;;;5028085;28;20936;-65
2021/12/11 11:07:23;;;;;;;37.90;20.83;;;3.20;99.90;;;;;;5037554;28;20056;-66
2021/12/11 11:09:54;;;;;;;33.10;19.50;;;3.40;99.90;;;;;;5016614;28;20081;-66
2021/12/11 11:12:24;;;;;;;38.00;21.05;;;3.50;99.90;;;;;;5041101;28;20045;-67
2021/12/11 11:14:53;;;;;;;37.55;19.85;;;3.50;99.90;;;;;;5041763;28;20122;-66
2021/12/11 11:17:25;;;;;;;36.47;20.38;;;3.60;99.90;;;;;;5044000;28;20056;-66
2021/12/11 11:19:52;;;;;;;;;;;3.60;99.90;;;;;;5042257;28;20051;-66
2021/12/11 11:22:30;;;;;;;32.75;19.13;;;3.60;99.90;;;;;;5039646;28;19947;-65
2021/12/11 11:25:07;;;;;;;34.42;19.75;;;3.50;99.90;;;;;;5043717;28;20057;-66
2021/12/11 11:27:36;;;;;;;31.67;17.90;;;3.50;99.90;;;;;;5041185;28;20044;-66
2021/12/11 11:30:08;;;;;;;36.03;19.15;;;3.50;99.90;;;;;;5048972;28;20507;-66
2021/12/11 11:32:35;;;;;;;35.70;18.60;;;3.40;99.90;;;;;;5018686;28;20060;-65
2021/12/11 11:35:09;;;;;;;30.85;18.55;;;3.30;99.90;;;;;;5013901;28;20120;-66
2021/12/11 11:37:51;;;;;;;33.83;17.52;;;3.30;99.90;;;;;;5029272;28;20037;-65
2021/12/11 11:40:26;;;;;;;33.38;19.73;;;3.30;99.90;;;;;;5034002;28;20068;-65
2021/12/11 11:42:54;;;;;;;36.65;19.38;;;3.30;99.90;;;;;;5017058;28;20179;-66
2021/12/11 11:45:21;;;;;;;33.08;18.55;;;3.50;99.90;;;;;;5001389;28;20046;-65
2021/12/11 11:47:50;;;;;;;29.52;17.10;;;3.40;99.90;;;;;;5013539;28;20053;-66
2021/12/11 11:50:21;;;;;;;31.60;18.23;;;3.30;99.90;;;;;;5034878;28;20045;-65
2021/12/11 11:52:49;;;;;;;31.48;17.52;;;3.40;99.90;;;;;;5022794;28;20404;-66
2021/12/11 11:55:24;;;;;;;33.10;18.67;;;3.50;99.90;;;;;;5022115;28;20407;-66
2021/12/11 11:57:53;;;;;;;30.33;17.58;;;3.50;99.90;;;;;;5028130;28;20072;-65
2021/12/11 12:00:31;;;;;;;30.50;17.00;;;3.60;99.90;;;;;;5039657;28;20048;-67
2021/12/11 12:03:00;;;;;;;32.33;17.67;;;3.60;99.90;;;;;;5035673;28;20431;-66
2021/12/11 12:05:31;;;;;;;33.17;19.38;;;3.60;99.90;;;;;;5037723;28;20092;-67
2021/12/11 12:07:58;;;;;;;35.57;19.10;;;3.60;99.90;;;;;;5041563;28;20056;-67
2021/12/11 12:10:27;;;;;;;30.73;17.45;;;3.50;99.90;;;;;;5015206;28;20052;-67
2021/12/11 12:12:54;;;;;;;32.88;18.90;;;3.60;99.90;;;;;;5029801;28;20045;-65
2021/12/11 12:15:31;;;;;;;33.60;17.75;;;3.60;99.90;;;;;;5021701;28;20126;-65
2021/12/11 12:17:59;;;;;;;34.45;18.23;;;3.70;99.90;;;;;;5041330;28;20136;-65
2021/12/11 12:20:26;;;;;;;29.80;17.35;;;3.70;99.90;;;;;;5030816;28;20037;-65
2021/12/11 12:22:55;;;;;;;28.83;16.98;;;3.60;99.90;;;;;;5044855;28;20051;-65
2021/12/11 12:25:24;;;;;;;32.28;17.98;;;3.70;99.90;;;;;;5041538;28;20500;-65
2021/12/11 12:27:52;;;;;;;34.40;18.83;;;3.70;99.90;;;;;;5044339;28;20068;-66
2021/12/11 12:30:38;;;;;;;35.40;19.15;;;3.70;99.90;;;;;;5043014;28;20055;-65
2021/12/11 12:33:07;;;;;;;32.03;17.60;;;3.70;99.90;;;;;;5025940;28;20068;-65
2021/12/11 12:35:35;;;;;;;36.97;18.88;;;3.80;99.90;;;;;;5032182;28;20037;-65
2021/12/11 12:38:09;;;;;;;32.88;18.33;;;3.70;99.90;;;;;;5043843;28;20041;-66
2021/12/11 12:40:50;;;;;;;40.85;19.35;;;3.50;99.90;;;;;;5015173;28;20065;-66
2021/12/11 12:46:52;;;;;;;36.88;19.55;;;3.20;99.90;;;;;;4947053;28;20059;-65
2021/12/11 12:49:20;;;;;;;32.17;18.15;;;3.30;99.90;;;;;;4948349;28;20517;-65
2021/12/11 12:51:49;;;;;;;30.45;17.95;;;3.20;99.90;;;;;;4923513;29;20140;-66
2021/12/11 12:54:20;;;;;;;32.85;19.83;;;3.30;99.90;;;;;;4948660;28;20525;-67
2021/12/11 12:56:55;;;;;;;33.65;18.17;;;3.20;99.90;;;;;;4940643;28;20054;-66
2021/12/11 12:59:32;;;;;;;32.33;17.90;;;3.20;99.90;;;;;;4954244;28;20525;-68
2021/12/11 13:02:05;;;;;;;24.48;15.95;;;3.10;99.90;;;;;;4940598;28;20055;-69
2021/12/11 13:04:40;;;;;;;32.08;17.02;;;3.20;99.90;;;;;;4954468;28;20193;-68
2021/12/11 13:07:12;;;;;;;38.47;17.58;;;3.20;99.90;;;;;;4936979;28;20054;-68
2021/12/11 13:09:44;;;;;;;34.08;17.98;;;3.20;99.90;;;;;;4948258;28;20073;-68
2021/12/11 13:12:26;;;;;;;30.63;17.15;;;3.20;99.90;;;;;;4947307;28;20078;-69
2021/12/11 13:14:56;;;;;;;31.52;18.00;;;3.20;99.90;;;;;;4948606;28;20074;-69
2021/12/11 13:17:27;;;;;;;31.65;18.13;;;3.20;99.90;;;;;;4991318;28;20033;-70
2021/12/11 13:20:03;;;;;;;32.47;18.65;;;3.20;99.90;;;;;;5028688;28;20049;-70
2021/12/11 13:22:36;;;;;;;34.95;18.55;;;3.10;99.90;;;;;;5014992;28;20052;-68